createdAt,value
2022-10-09T00:01:41.366Z,5.22
2022-10-09T00:06:43.580Z,5.22
2022-10-09T00:11:45.846Z,4.57
2022-10-09T00:16:48.095Z,5.85
2022-10-09T00:21:50.463Z,4.47
2022-10-09T00:26:52.682Z,5.38
2022-10-09T00:31:55.340Z,4.95
2022-10-09T00:36:57.758Z,4.47
2022-10-09T00:42:00.275Z,4.90
2022-10-09T00:47:02.455Z,4.10
2022-10-09T00:52:07.872Z,4.50
2022-10-09T00:57:10.876Z,3.85
2022-10-09T01:02:13.205Z,3.67
2022-10-09T01:07:24.528Z,4.45
2022-10-09T01:12:43.865Z,4.53
2022-10-09T01:18:13.276Z,4.20
2022-10-09T01:23:39.807Z,3.72
2022-10-09T01:28:46.965Z,4.30
2022-10-09T01:33:50.164Z,4.28
2022-10-09T01:38:53.436Z,4.43
2022-10-09T01:43:55.702Z,4.05
2022-10-09T01:49:09.573Z,3.75
2022-10-09T01:54:15.431Z,3.83
2022-10-09T01:59:20.137Z,4.05
2022-10-09T02:04:24.045Z,3.35
2022-10-09T02:09:26.409Z,4.28
2022-10-09T02:14:28.695Z,3.30
2022-10-09T02:19:48.869Z,3.53
2022-10-09T02:29:54.281Z,3.92
2022-10-09T02:34:56.820Z,3.78
2022-10-09T02:39:59.200Z,3.80
2022-10-09T02:45:01.347Z,3.40
2022-10-09T02:50:03.606Z,3.70
2022-10-09T02:55:06.069Z,3.70
2022-10-09T03:00:08.789Z,2.90
2022-10-09T03:05:11.152Z,3.15
2022-10-09T03:10:13.496Z,4.28
2022-10-09T03:15:16.042Z,3.67
2022-10-09T03:20:18.775Z,3.33
2022-10-09T03:25:21.270Z,3.63
2022-10-09T03:30:23.562Z,3.63
2022-10-09T03:35:25.990Z,3.67
2022-10-09T03:40:28.482Z,3.33
2022-10-09T03:45:30.939Z,3.28
2022-10-09T03:50:33.499Z,3.60
2022-10-09T03:55:36.076Z,3.50
2022-10-09T04:00:38.343Z,3.30
2022-10-09T04:05:40.592Z,3.78
2022-10-09T04:10:42.866Z,4.70
2022-10-09T04:15:51.640Z,3.80
2022-10-09T04:20:56.038Z,3.60
2022-10-09T04:25:59.980Z,3.53
2022-10-09T04:31:02.266Z,3.58
2022-10-09T04:36:04.758Z,3.70
2022-10-09T04:41:08.113Z,4.30
2022-10-09T04:46:13.665Z,4.75
2022-10-09T04:51:18.138Z,4.28
2022-10-09T04:56:21.619Z,4.35
2022-10-09T05:01:26.253Z,4.60
2022-10-09T05:06:28.698Z,5.00
2022-10-09T05:11:30.896Z,4.70
2022-10-09T05:16:44.739Z,4.43
2022-10-09T05:21:55.528Z,5.05
2022-10-09T05:26:57.717Z,5.25
2022-10-09T05:32:00.171Z,4.35
2022-10-09T05:37:02.562Z,4.78
2022-10-09T05:42:05.156Z,19.60
2022-10-09T05:47:07.343Z,5.70
2022-10-09T05:52:09.547Z,14.43
2022-10-09T05:57:11.774Z,5.75
2022-10-09T06:02:14.799Z,5.82
2022-10-09T06:07:17.375Z,5.28
2022-10-09T06:12:19.600Z,5.75
2022-10-09T06:17:21.889Z,6.55
2022-10-09T06:22:24.126Z,6.35
2022-10-09T06:27:26.337Z,5.80
2022-10-09T06:32:28.987Z,5.88
2022-10-09T06:37:31.301Z,5.45
2022-10-09T06:42:33.530Z,4.80
2022-10-09T06:47:35.908Z,4.90
2022-10-09T06:52:38.351Z,5.50
2022-10-09T06:57:40.604Z,4.50
2022-10-09T07:02:44.210Z,4.88
2022-10-09T07:07:46.602Z,4.40
2022-10-09T07:12:48.965Z,6.15
2022-10-09T07:17:51.308Z,3.45
2022-10-09T07:22:53.559Z,5.05
2022-10-09T07:27:56.366Z,4.68
2022-10-09T07:32:58.727Z,4.57
2022-10-09T07:38:00.988Z,3.72
2022-10-09T07:43:03.370Z,5.38
2022-10-09T07:48:05.816Z,4.80
2022-10-09T07:53:09.135Z,3.53
2022-10-09T07:58:11.457Z,2.90
2022-10-09T08:03:13.699Z,3.60
2022-10-09T08:08:15.948Z,3.72
2022-10-09T08:13:18.305Z,2.90
2022-10-09T08:18:20.665Z,2.75
2022-10-09T08:23:23.054Z,3.30
2022-10-09T08:28:25.675Z,2.40
2022-10-09T08:33:28.419Z,3.38
2022-10-09T08:38:46.617Z,2.75
2022-10-09T08:43:55.493Z,2.97
2022-10-09T08:48:59.374Z,3.20
2022-10-09T08:54:15.930Z,3.67
2022-10-09T08:59:18.248Z,2.25
2022-10-09T09:04:50.026Z,2.40
2022-10-09T09:10:01.083Z,2.53
2022-10-09T09:15:23.161Z,3.08
2022-10-09T09:20:34.651Z,2.50
2022-10-09T09:25:41.694Z,2.65
2022-10-09T09:30:58.244Z,2.53
2022-10-09T09:36:11.750Z,2.60
2022-10-09T09:41:14.225Z,2.45
2022-10-09T09:46:21.117Z,2.35
2022-10-09T09:51:29.314Z,2.72
2022-10-09T10:02:23.770Z,2.50
2022-10-09T10:07:34.315Z,2.45
2022-10-09T10:12:53.098Z,2.80
2022-10-09T10:18:07.961Z,2.72
2022-10-09T10:23:33.805Z,3.30
2022-10-09T10:28:45.967Z,2.40
2022-10-09T10:33:53.972Z,3.03
2022-10-09T10:39:07.132Z,2.97
2022-10-09T10:44:43.338Z,3.10
2022-10-09T10:49:45.607Z,2.83
2022-10-09T10:55:16.685Z,2.75
2022-10-09T11:00:19.109Z,4.78
2022-10-09T11:05:51.107Z,3.00
2022-10-09T11:11:12.051Z,3.20
2022-10-09T11:16:44.534Z,3.17
2022-10-09T11:21:49.916Z,2.88
2022-10-09T11:27:10.677Z,2.88
2022-10-09T11:32:21.088Z,2.58
2022-10-09T11:37:28.935Z,2.20
2022-10-09T11:42:31.953Z,2.30
2022-10-09T11:47:39.972Z,2.30
2022-10-09T11:53:00.766Z,3.08
2022-10-09T11:58:23.175Z,2.80
2022-10-09T12:03:25.482Z,2.10
2022-10-09T12:08:28.394Z,3.13
2022-10-09T12:13:43.107Z,2.65
2022-10-09T12:18:47.995Z,2.03
2022-10-09T12:23:51.865Z,2.33
2022-10-09T12:29:05.589Z,2.40
2022-10-09T12:34:13.659Z,2.00
2022-10-09T12:39:23.801Z,2.40
2022-10-09T12:44:36.894Z,2.20
2022-10-09T12:49:39.486Z,2.47
2022-10-09T12:54:44.997Z,2.13
2022-10-09T12:59:49.133Z,2.58
2022-10-09T13:05:02.560Z,1.92
2022-10-09T13:10:21.519Z,2.20
2022-10-09T13:15:35.807Z,2.20
2022-10-09T13:20:38.330Z,2.03
2022-10-09T13:25:44.610Z,2.10
2022-10-09T13:30:47.161Z,1.80
2022-10-09T13:35:49.623Z,1.52
2022-10-09T13:40:52.051Z,1.75
2022-10-09T13:45:54.861Z,1.88
2022-10-09T13:50:59.586Z,2.42
2022-10-09T13:56:01.967Z,2.88
2022-10-09T14:01:04.789Z,2.50
2022-10-09T14:06:07.602Z,3.00
2022-10-09T14:11:10.259Z,2.55
2022-10-09T14:16:12.711Z,3.53
2022-10-09T14:21:16.102Z,2.70
2022-10-09T14:26:18.329Z,1.85
2022-10-09T14:31:20.971Z,2.22
2022-10-09T14:36:23.328Z,2.22
2022-10-09T14:41:25.615Z,2.22
2022-10-09T14:46:29.393Z,2.50
2022-10-09T14:51:36.033Z,1.50
2022-10-09T14:56:39.587Z,2.00
2022-10-09T15:01:41.861Z,1.80
2022-10-09T15:06:44.323Z,2.08
2022-10-09T15:11:46.590Z,2.10
2022-10-09T15:16:49.054Z,2.13
2022-10-09T15:21:51.738Z,2.33
2022-10-09T15:26:54.606Z,2.22
2022-10-09T15:31:57.027Z,2.13
2022-10-09T15:36:59.172Z,2.20
2022-10-09T15:42:01.535Z,2.42
2022-10-09T15:47:03.859Z,2.25
2022-10-09T15:52:06.083Z,2.03
2022-10-09T15:57:08.585Z,2.40
2022-10-09T16:02:12.380Z,2.22
2022-10-09T16:07:14.585Z,2.35
2022-10-09T16:12:16.832Z,2.58
2022-10-09T16:17:19.243Z,3.00
2022-10-09T16:22:21.437Z,3.53
2022-10-09T16:27:23.951Z,2.42
2022-10-09T16:32:26.378Z,3.22
2022-10-09T16:37:28.880Z,2.70
2022-10-09T16:42:31.448Z,2.50
2022-10-09T16:47:34.428Z,2.40
2022-10-09T16:52:36.659Z,3.28
2022-10-09T16:57:38.868Z,3.38
2022-10-09T17:02:41.174Z,2.60
2022-10-09T17:07:45.560Z,2.78
2022-10-09T17:12:48.054Z,2.72
2022-10-09T17:17:50.700Z,3.47
2022-10-09T17:22:53.363Z,3.28
2022-10-09T17:27:56.513Z,3.17
2022-10-09T17:32:58.764Z,3.20
2022-10-09T17:38:01.109Z,3.15
2022-10-09T17:43:03.464Z,3.47
2022-10-09T17:48:05.812Z,4.30
2022-10-09T17:53:08.027Z,4.10
2022-10-09T17:58:10.204Z,4.85
2022-10-09T18:03:12.853Z,4.45
2022-10-09T18:08:17.441Z,4.63
2022-10-09T18:13:20.063Z,3.67
2022-10-09T18:18:22.771Z,4.93
2022-10-09T18:23:24.959Z,4.97
2022-10-09T18:33:35.715Z,13.25
2022-10-09T18:38:37.988Z,13.55
2022-10-09T18:43:40.179Z,11.32
2022-10-09T18:48:43.079Z,9.50
2022-10-09T18:53:50.386Z,6.43
2022-10-09T18:58:53.354Z,5.57
2022-10-09T19:03:55.611Z,5.05
2022-10-09T19:09:01.094Z,4.00
2022-10-09T19:14:03.766Z,3.95
2022-10-09T19:19:07.301Z,3.80
2022-10-09T19:24:09.898Z,4.28
2022-10-09T19:29:12.276Z,3.40
2022-10-09T19:34:15.044Z,3.55
2022-10-09T19:39:19.344Z,3.72
2022-10-09T19:44:22.184Z,4.13
2022-10-09T19:49:24.657Z,3.70
2022-10-09T19:54:26.951Z,3.92
2022-10-09T19:59:29.734Z,3.58
2022-10-09T20:04:32.184Z,4.00
2022-10-09T20:09:34.596Z,3.50
2022-10-09T20:14:36.866Z,4.30
2022-10-09T20:19:42.267Z,4.15
2022-10-09T20:24:47.709Z,3.90
2022-10-09T20:29:49.965Z,3.95
2022-10-09T20:34:52.826Z,3.72
2022-10-09T20:39:55.700Z,3.90
2022-10-09T20:44:57.907Z,4.00
2022-10-09T20:50:00.214Z,4.28
2022-10-09T20:55:02.732Z,5.00
2022-10-09T21:00:05.911Z,4.30
2022-10-09T21:05:08.829Z,4.80
2022-10-09T21:10:11.339Z,4.63
2022-10-09T21:15:13.655Z,4.43
2022-10-09T21:20:16.141Z,4.63
2022-10-09T21:25:18.517Z,5.65
2022-10-09T21:30:20.836Z,5.75
2022-10-09T21:35:24.071Z,6.75
2022-10-09T21:40:26.403Z,8.43
2022-10-09T21:45:28.822Z,8.55
2022-10-09T21:50:33.339Z,8.30
2022-10-09T21:55:37.370Z,13.35
2022-10-09T22:00:39.697Z,13.30
2022-10-09T22:05:41.996Z,11.85
2022-10-09T22:10:44.162Z,9.85
2022-10-09T22:15:50.806Z,10.52
2022-10-09T22:20:53.442Z,7.20
2022-10-09T22:25:57.949Z,7.55
2022-10-09T22:31:13.190Z,5.97
2022-10-09T22:36:17.723Z,5.22
2022-10-09T22:41:21.396Z,4.53
2022-10-09T22:46:27.086Z,4.85
2022-10-09T22:51:30.140Z,4.85
2022-10-09T22:56:35.470Z,4.55
2022-10-09T23:01:43.770Z,4.90
2022-10-09T23:06:46.772Z,4.97
2022-10-09T23:11:49.251Z,4.45
2022-10-09T23:16:51.630Z,4.95
2022-10-09T23:21:53.962Z,4.75
2022-10-09T23:26:56.311Z,4.90
2022-10-09T23:31:58.491Z,6.00
2022-10-09T23:37:00.810Z,5.97
2022-10-09T23:42:03.186Z,5.72
2022-10-09T23:47:05.594Z,5.28
2022-10-09T23:52:08.082Z,6.15
2022-10-09T23:57:10.406Z,5.55
